sensor_id;sensor_type;location;lat;lon;timestamp;temperature;humidity
8947;DHT22;4508;48.790;9.028;2022-10-16T00:00:29;14.90;99.90
8947;DHT22;4508;48.790;9.028;2022-10-16T00:02:56;15.10;99.90
8947;DHT22;4508;48.790;9.028;2022-10-16T00:05:23;15.10;99.90
8947;DHT22;4508;48.790;9.028;2022-10-16T00:07:50;15.10;99.90
8947;DHT22;4508;48.790;9.028;2022-10-16T00:10:16;15.10;99.90
8947;DHT22;4508;48.790;9.028;2022-10-16T00:12:43;15.10;99.90
8947;DHT22;4508;48.790;9.028;2022-10-16T00:15:09;15.00;99.90
8947;DHT22;4508;48.790;9.028;2022-10-16T00:17:36;15.00;99.90
8947;DHT22;4508;48.790;9.028;2022-10-16T00:20:04;15.00;99.90
8947;DHT22;4508;48.790;9.028;2022-10-16T00:22:31;15.00;99.90
8947;DHT22;4508;48.790;9.028;2022-10-16T00:24:57;15.10;99.90
8947;DHT22;4508;48.790;9.028;2022-10-16T00:27:24;15.10;99.90
8947;DHT22;4508;48.790;9.028;2022-10-16T00:29:51;15.00;99.90
8947;DHT22;4508;48.790;9.028;2022-10-16T00:32:17;14.90;99.90
8947;DHT22;4508;48.790;9.028;2022-10-16T00:34:44;14.90;99.90
8947;DHT22;4508;48.790;9.028;2022-10-16T00:37:12;14.90;99.90
8947;DHT22;4508;48.790;9.028;2022-10-16T00:39:38;14.90;99.90
8947;DHT22;4508;48.790;9.028;2022-10-16T00:42:05;14.90;99.90
8947;DHT22;4508;48.790;9.028;2022-10-16T00:44:42;14.90;99.90
8947;DHT22;4508;48.790;9.028;2022-10-16T00:47:09;15.00;99.90
8947;DHT22;4508;48.790;9.028;2022-10-16T00:49:37;15.00;99.90
8947;DHT22;4508;48.790;9.028;2022-10-16T00:52:04;14.80;99.90
8947;DHT22;4508;48.790;9.028;2022-10-16T00:54:33;14.80;99.90
8947;DHT22;4508;48.790;9.028;2022-10-16T00:57:00;14.90;99.90
8947;DHT22;4508;48.790;9.028;2022-10-16T00:59:28;14.80;99.90
8947;DHT22;4508;48.790;9.028;2022-10-16T01:01:55;14.90;99.90
8947;DHT22;4508;48.790;9.028;2022-10-16T01:04:22;14.90;99.90
8947;DHT22;4508;48.790;9.028;2022-10-16T01:06:50;14.90;99.90
8947;DHT22;4508;48.790;9.028;2022-10-16T01:09:20;14.80;99.90
8947;DHT22;4508;48.790;9.028;2022-10-16T01:11:52;14.90;99.90
8947;DHT22;4508;48.790;9.028;2022-10-16T01:14:22;14.90;99.90
8947;DHT22;4508;48.790;9.028;2022-10-16T01:16:53;14.80;99.90
8947;DHT22;4508;48.790;9.028;2022-10-16T01:19:24;14.80;99.90
8947;DHT22;4508;48.790;9.028;2022-10-16T01:21:56;14.90;99.90
8947;DHT22;4508;48.790;9.028;2022-10-16T01:24:27;14.70;99.90
8947;DHT22;4508;48.790;9.028;2022-10-16T01:27:02;14.80;99.90
8947;DHT22;4508;48.790;9.028;2022-10-16T01:29:30;14.70;99.90
8947;DHT22;4508;48.790;9.028;2022-10-16T01:31:59;14.80;99.90
8947;DHT22;4508;48.790;9.028;2022-10-16T01:34:28;14.70;99.90
8947;DHT22;4508;48.790;9.028;2022-10-16T01:36:59;14.80;99.90
8947;DHT22;4508;48.790;9.028;2022-10-16T01:39:28;14.80;99.90
8947;DHT22;4508;48.790;9.028;2022-10-16T01:41:58;14.80;99.90
8947;DHT22;4508;48.790;9.028;2022-10-16T01:44:28;14.80;99.90
8947;DHT22;4508;48.790;9.028;2022-10-16T01:46:55;14.70;99.90
8947;DHT22;4508;48.790;9.028;2022-10-16T01:49:23;14.80;99.90
8947;DHT22;4508;48.790;9.028;2022-10-16T01:51:52;14.80;99.90
8947;DHT22;4508;48.790;9.028;2022-10-16T01:54:20;14.80;99.90
8947;DHT22;4508;48.790;9.028;2022-10-16T01:56:48;14.90;99.90
8947;DHT22;4508;48.790;9.028;2022-10-16T01:59:16;14.80;99.90
8947;DHT22;4508;48.790;9.028;2022-10-16T02:01:47;14.90;99.90
8947;DHT22;4508;48.790;9.028;2022-10-16T02:04:15;14.80;99.90
8947;DHT22;4508;48.790;9.028;2022-10-16T02:06:43;14.80;99.90
8947;DHT22;4508;48.790;9.028;2022-10-16T02:09:10;14.80;99.90
8947;DHT22;4508;48.790;9.028;2022-10-16T02:11:36;14.80;99.90
8947;DHT22;4508;48.790;9.028;2022-10-16T02:14:04;14.80;99.90
8947;DHT22;4508;48.790;9.028;2022-10-16T02:16:34;14.70;99.90
8947;DHT22;4508;48.790;9.028;2022-10-16T02:19:02;14.70;99.90
8947;DHT22;4508;48.790;9.028;2022-10-16T02:21:30;14.70;99.90
8947;DHT22;4508;48.790;9.028;2022-10-16T02:24:00;14.80;99.90
8947;DHT22;4508;48.790;9.028;2022-10-16T02:26:29;14.80;99.90
8947;DHT22;4508;48.790;9.028;2022-10-16T02:28:59;14.80;99.90
8947;DHT22;4508;48.790;9.028;2022-10-16T02:31:27;14.70;99.90
8947;DHT22;4508;48.790;9.028;2022-10-16T02:33:54;14.70;99.90
8947;DHT22;4508;48.790;9.028;2022-10-16T02:36:23;14.70;99.90
8947;DHT22;4508;48.790;9.028;2022-10-16T02:38:49;14.70;99.90
8947;DHT22;4508;48.790;9.028;2022-10-16T02:41:16;14.90;99.90
8947;DHT22;4508;48.790;9.028;2022-10-16T02:43:43;14.80;99.90
8947;DHT22;4508;48.790;9.028;2022-10-16T02:46:09;14.80;99.90
8947;DHT22;4508;48.790;9.028;2022-10-16T02:48:36;14.70;99.90
8947;DHT22;4508;48.790;9.028;2022-10-16T02:51:02;14.70;99.90
8947;DHT22;4508;48.790;9.028;2022-10-16T02:53:30;14.70;99.90
8947;DHT22;4508;48.790;9.028;2022-10-16T02:55:57;14.70;99.90
8947;DHT22;4508;48.790;9.028;2022-10-16T02:58:23;14.40;99.90
8947;DHT22;4508;48.790;9.028;2022-10-16T03:00:50;14.60;99.90
8947;DHT22;4508;48.790;9.028;2022-10-16T03:03:17;14.60;99.90
8947;DHT22;4508;48.790;9.028;2022-10-16T03:05:43;14.60;99.90
8947;DHT22;4508;48.790;9.028;2022-10-16T03:08:11;14.70;99.90
8947;DHT22;4508;48.790;9.028;2022-10-16T03:10:38;14.60;99.90
8947;DHT22;4508;48.790;9.028;2022-10-16T03:13:05;14.40;99.90
8947;DHT22;4508;48.790;9.028;2022-10-16T03:15:32;14.60;99.90
8947;DHT22;4508;48.790;9.028;2022-10-16T03:17:58;14.50;99.90
8947;DHT22;4508;48.790;9.028;2022-10-16T03:20:25;14.60;99.90
8947;DHT22;4508;48.790;9.028;2022-10-16T03:22:52;14.50;99.90
8947;DHT22;4508;48.790;9.028;2022-10-16T03:25:18;14.60;99.90
8947;DHT22;4508;48.790;9.028;2022-10-16T03:27:46;14.60;99.90
8947;DHT22;4508;48.790;9.028;2022-10-16T03:30:13;14.70;99.90
8947;DHT22;4508;48.790;9.028;2022-10-16T03:32:39;14.60;99.90
8947;DHT22;4508;48.790;9.028;2022-10-16T03:35:06;14.60;99.90
8947;DHT22;4508;48.790;9.028;2022-10-16T03:37:33;14.70;99.90
8947;DHT22;4508;48.790;9.028;2022-10-16T03:39:59;14.50;99.90
8947;DHT22;4508;48.790;9.028;2022-10-16T03:42:26;14.50;99.90
8947;DHT22;4508;48.790;9.028;2022-10-16T03:44:53;14.60;99.90
8947;DHT22;4508;48.790;9.028;2022-10-16T03:47:20;14.50;99.90
8947;DHT22;4508;48.790;9.028;2022-10-16T03:49:48;14.60;99.90
8947;DHT22;4508;48.790;9.028;2022-10-16T03:52:15;14.50;99.90
8947;DHT22;4508;48.790;9.028;2022-10-16T03:54:41;14.40;99.90
8947;DHT22;4508;48.790;9.028;2022-10-16T03:57:08;14.40;99.90
8947;DHT22;4508;48.790;9.028;2022-10-16T03:59:34;14.40;99.90
8947;DHT22;4508;48.790;9.028;2022-10-16T04:02:02;14.50;99.90
8947;DHT22;4508;48.790;9.028;2022-10-16T04:04:29;14.40;99.90
8947;DHT22;4508;48.790;9.028;2022-10-16T04:06:55;14.40;99.90
8947;DHT22;4508;48.790;9.028;2022-10-16T04:09:22;14.40;99.90
8947;DHT22;4508;48.790;9.028;2022-10-16T04:11:48;14.30;99.90
8947;DHT22;4508;48.790;9.028;2022-10-16T04:14:16;14.40;99.90
8947;DHT22;4508;48.790;9.028;2022-10-16T04:16:42;14.30;99.90
8947;DHT22;4508;48.790;9.028;2022-10-16T04:19:10;14.40;99.90
8947;DHT22;4508;48.790;9.028;2022-10-16T04:21:37;14.30;99.90
8947;DHT22;4508;48.790;9.028;2022-10-16T04:24:03;14.30;99.90
8947;DHT22;4508;48.790;9.028;2022-10-16T04:26:30;14.30;99.90
8947;DHT22;4508;48.790;9.028;2022-10-16T04:28:56;14.40;99.90
8947;DHT22;4508;48.790;9.028;2022-10-16T04:31:23;14.50;99.90
8947;DHT22;4508;48.790;9.028;2022-10-16T04:33:49;14.50;99.90
8947;DHT22;4508;48.790;9.028;2022-10-16T04:36:17;14.50;99.90
8947;DHT22;4508;48.790;9.028;2022-10-16T04:38:44;14.40;99.90
8947;DHT22;4508;48.790;9.028;2022-10-16T04:41:10;14.30;99.90
8947;DHT22;4508;48.790;9.028;2022-10-16T04:43:37;14.50;99.90
8947;DHT22;4508;48.790;9.028;2022-10-16T04:46:03;14.30;99.90
8947;DHT22;4508;48.790;9.028;2022-10-16T04:48:30;14.40;99.90
8947;DHT22;4508;48.790;9.028;2022-10-16T04:50:57;14.40;99.90
8947;DHT22;4508;48.790;9.028;2022-10-16T04:53:25;14.30;99.90
8947;DHT22;4508;48.790;9.028;2022-10-16T04:55:51;14.40;99.90
8947;DHT22;4508;48.790;9.028;2022-10-16T04:58:18;14.40;99.90
8947;DHT22;4508;48.790;9.028;2022-10-16T05:00:44;14.40;99.90
8947;DHT22;4508;48.790;9.028;2022-10-16T05:03:12;14.50;99.90
8947;DHT22;4508;48.790;9.028;2022-10-16T05:05:42;14.40;99.90
8947;DHT22;4508;48.790;9.028;2022-10-16T05:08:08;14.40;99.90
8947;DHT22;4508;48.790;9.028;2022-10-16T05:10:36;14.40;99.90
8947;DHT22;4508;48.790;9.028;2022-10-16T05:13:03;14.70;99.90
8947;DHT22;4508;48.790;9.028;2022-10-16T05:15:29;14.40;99.90
8947;DHT22;4508;48.790;9.028;2022-10-16T05:17:56;14.40;99.90
8947;DHT22;4508;48.790;9.028;2022-10-16T05:20:22;14.40;99.90
8947;DHT22;4508;48.790;9.028;2022-10-16T05:22:49;14.40;99.90
8947;DHT22;4508;48.790;9.028;2022-10-16T05:25:16;14.40;99.90
8947;DHT22;4508;48.790;9.028;2022-10-16T05:27:46;14.40;99.90
8947;DHT22;4508;48.790;9.028;2022-10-16T05:30:13;14.50;99.90
8947;DHT22;4508;48.790;9.028;2022-10-16T05:32:39;14.60;99.90
8947;DHT22;4508;48.790;9.028;2022-10-16T05:35:06;14.40;99.90
8947;DHT22;4508;48.790;9.028;2022-10-16T05:37:33;14.30;99.90
8947;DHT22;4508;48.790;9.028;2022-10-16T05:39:59;14.30;99.90
8947;DHT22;4508;48.790;9.028;2022-10-16T05:42:26;14.20;99.90
8947;DHT22;4508;48.790;9.028;2022-10-16T05:44:54;14.20;99.90
8947;DHT22;4508;48.790;9.028;2022-10-16T05:47:20;14.20;99.90
8947;DHT22;4508;48.790;9.028;2022-10-16T05:49:47;14.30;99.90
8947;DHT22;4508;48.790;9.028;2022-10-16T05:52:13;14.30;99.90
8947;DHT22;4508;48.790;9.028;2022-10-16T05:54:40;14.30;99.90
8947;DHT22;4508;48.790;9.028;2022-10-16T05:57:06;14.30;99.90
8947;DHT22;4508;48.790;9.028;2022-10-16T05:59:33;14.30;99.90
8947;DHT22;4508;48.790;9.028;2022-10-16T06:02:01;14.30;99.90
8947;DHT22;4508;48.790;9.028;2022-10-16T06:04:27;14.40;99.90
8947;DHT22;4508;48.790;9.028;2022-10-16T06:06:54;14.40;99.90
8947;DHT22;4508;48.790;9.028;2022-10-16T06:09:25;14.30;99.90
8947;DHT22;4508;48.790;9.028;2022-10-16T06:11:52;14.30;99.90
8947;DHT22;4508;48.790;9.028;2022-10-16T06:14:18;14.30;99.90
8947;DHT22;4508;48.790;9.028;2022-10-16T06:16:45;14.40;99.90
8947;DHT22;4508;48.790;9.028;2022-10-16T06:19:12;14.30;99.90
8947;DHT22;4508;48.790;9.028;2022-10-16T06:21:39;14.30;99.90
8947;DHT22;4508;48.790;9.028;2022-10-16T06:24:06;14.30;99.90
8947;DHT22;4508;48.790;9.028;2022-10-16T06:26:32;14.40;99.90
8947;DHT22;4508;48.790;9.028;2022-10-16T06:28:59;14.40;99.90
8947;DHT22;4508;48.790;9.028;2022-10-16T06:31:25;14.40;99.90
8947;DHT22;4508;48.790;9.028;2022-10-16T06:33:54;14.50;99.90
8947;DHT22;4508;48.790;9.028;2022-10-16T06:36:23;14.40;99.90
8947;DHT22;4508;48.790;9.028;2022-10-16T06:38:50;14.50;99.90
8947;DHT22;4508;48.790;9.028;2022-10-16T06:41:17;14.50;99.90
8947;DHT22;4508;48.790;9.028;2022-10-16T06:43:44;14.60;99.90
8947;DHT22;4508;48.790;9.028;2022-10-16T06:46:11;14.70;99.90
8947;DHT22;4508;48.790;9.028;2022-10-16T06:48:38;14.90;99.90
8947;DHT22;4508;48.790;9.028;2022-10-16T06:51:05;14.80;99.90
8947;DHT22;4508;48.790;9.028;2022-10-16T06:53:34;14.90;99.90
8947;DHT22;4508;48.790;9.028;2022-10-16T06:56:06;14.80;99.90
8947;DHT22;4508;48.790;9.028;2022-10-16T06:58:33;15.00;99.90
8947;DHT22;4508;48.790;9.028;2022-10-16T07:00:59;15.20;99.90
8947;DHT22;4508;48.790;9.028;2022-10-16T07:03:26;15.10;99.90
8947;DHT22;4508;48.790;9.028;2022-10-16T07:05:52;15.10;99.90
8947;DHT22;4508;48.790;9.028;2022-10-16T07:08:19;15.30;99.90
8947;DHT22;4508;48.790;9.028;2022-10-16T07:10:47;15.30;99.90
8947;DHT22;4508;48.790;9.028;2022-10-16T07:13:13;15.30;99.90
8947;DHT22;4508;48.790;9.028;2022-10-16T07:15:40;15.30;99.90
8947;DHT22;4508;48.790;9.028;2022-10-16T07:18:06;15.30;99.90
8947;DHT22;4508;48.790;9.028;2022-10-16T07:20:33;15.30;99.90
8947;DHT22;4508;48.790;9.028;2022-10-16T07:22:59;15.40;99.90
8947;DHT22;4508;48.790;9.028;2022-10-16T07:25:26;15.30;99.90
8947;DHT22;4508;48.790;9.028;2022-10-16T07:27:54;15.30;99.90
8947;DHT22;4508;48.790;9.028;2022-10-16T07:30:22;15.30;99.90
8947;DHT22;4508;48.790;9.028;2022-10-16T07:32:48;15.20;99.90
8947;DHT22;4508;48.790;9.028;2022-10-16T07:35:15;15.20;99.90
8947;DHT22;4508;48.790;9.028;2022-10-16T07:37:43;15.30;99.90
8947;DHT22;4508;48.790;9.028;2022-10-16T07:40:10;15.40;99.90
8947;DHT22;4508;48.790;9.028;2022-10-16T07:42:36;15.40;99.90
8947;DHT22;4508;48.790;9.028;2022-10-16T07:45:05;15.40;99.90
8947;DHT22;4508;48.790;9.028;2022-10-16T07:47:32;15.50;99.90
8947;DHT22;4508;48.790;9.028;2022-10-16T07:49:58;15.60;99.90
8947;DHT22;4508;48.790;9.028;2022-10-16T07:52:25;15.90;99.90
8947;DHT22;4508;48.790;9.028;2022-10-16T07:54:51;15.70;99.90
8947;DHT22;4508;48.790;9.028;2022-10-16T07:57:18;15.60;99.90
8947;DHT22;4508;48.790;9.028;2022-10-16T07:59:45;15.80;99.90
8947;DHT22;4508;48.790;9.028;2022-10-16T08:02:13;15.80;99.90
8947;DHT22;4508;48.790;9.028;2022-10-16T08:04:40;16.20;99.90
8947;DHT22;4508;48.790;9.028;2022-10-16T08:07:06;16.00;99.90
8947;DHT22;4508;48.790;9.028;2022-10-16T08:09:33;16.00;99.90
8947;DHT22;4508;48.790;9.028;2022-10-16T08:11:59;16.10;99.90
8947;DHT22;4508;48.790;9.028;2022-10-16T08:14:27;16.20;99.90
8947;DHT22;4508;48.790;9.028;2022-10-16T08:16:54;16.50;99.90
8947;DHT22;4508;48.790;9.028;2022-10-16T08:19:22;16.80;99.90
8947;DHT22;4508;48.790;9.028;2022-10-16T08:21:48;16.90;99.90
8947;DHT22;4508;48.790;9.028;2022-10-16T08:24:15;16.90;99.90
8947;DHT22;4508;48.790;9.028;2022-10-16T08:26:41;17.00;99.90
8947;DHT22;4508;48.790;9.028;2022-10-16T08:29:08;17.00;99.90
8947;DHT22;4508;48.790;9.028;2022-10-16T08:31:34;17.00;99.90
8947;DHT22;4508;48.790;9.028;2022-10-16T08:34:01;17.00;99.90
8947;DHT22;4508;48.790;9.028;2022-10-16T08:36:29;17.00;99.90
8947;DHT22;4508;48.790;9.028;2022-10-16T08:38:55;17.10;99.90
8947;DHT22;4508;48.790;9.028;2022-10-16T08:44:23;16.90;99.90
8947;DHT22;4508;48.790;9.028;2022-10-16T08:46:54;16.50;99.90
8947;DHT22;4508;48.790;9.028;2022-10-16T08:49:22;17.00;99.90
8947;DHT22;4508;48.790;9.028;2022-10-16T08:51:51;16.90;99.90
8947;DHT22;4508;48.790;9.028;2022-10-16T08:54:28;17.00;99.90
8947;DHT22;4508;48.790;9.028;2022-10-16T08:56:55;16.90;99.90
8947;DHT22;4508;48.790;9.028;2022-10-16T08:59:22;17.10;99.90
8947;DHT22;4508;48.790;9.028;2022-10-16T09:01:49;17.00;99.90
8947;DHT22;4508;48.790;9.028;2022-10-16T09:07:06;17.20;99.90
8947;DHT22;4508;48.790;9.028;2022-10-16T09:09:40;17.40;99.90
8947;DHT22;4508;48.790;9.028;2022-10-16T09:12:12;18.70;99.90
8947;DHT22;4508;48.790;9.028;2022-10-16T09:14:54;19.60;99.90
8947;DHT22;4508;48.790;9.028;2022-10-16T09:17:32;18.90;99.90
8947;DHT22;4508;48.790;9.028;2022-10-16T09:20:20;19.70;99.90
8947;DHT22;4508;48.790;9.028;2022-10-16T09:22:50;19.70;99.90
8947;DHT22;4508;48.790;9.028;2022-10-16T09:25:19;20.10;99.90
8947;DHT22;4508;48.790;9.028;2022-10-16T09:27:48;19.50;99.90
8947;DHT22;4508;48.790;9.028;2022-10-16T09:30:15;19.60;99.90
8947;DHT22;4508;48.790;9.028;2022-10-16T09:32:43;19.80;99.90
8947;DHT22;4508;48.790;9.028;2022-10-16T09:35:11;19.40;99.90
8947;DHT22;4508;48.790;9.028;2022-10-16T09:37:39;19.20;99.90
8947;DHT22;4508;48.790;9.028;2022-10-16T09:40:11;18.90;99.90
8947;DHT22;4508;48.790;9.028;2022-10-16T09:42:38;19.10;99.90
8947;DHT22;4508;48.790;9.028;2022-10-16T09:45:05;19.00;99.90
8947;DHT22;4508;48.790;9.028;2022-10-16T09:47:32;19.10;99.90
8947;DHT22;4508;48.790;9.028;2022-10-16T09:50:19;19.40;99.90
8947;DHT22;4508;48.790;9.028;2022-10-16T09:52:46;21.50;99.90
8947;DHT22;4508;48.790;9.028;2022-10-16T09:55:15;21.70;99.90
8947;DHT22;4508;48.790;9.028;2022-10-16T09:57:48;22.20;99.90
8947;DHT22;4508;48.790;9.028;2022-10-16T10:00:15;21.90;99.90
8947;DHT22;4508;48.790;9.028;2022-10-16T10:02:42;21.20;99.90
8947;DHT22;4508;48.790;9.028;2022-10-16T10:05:17;20.80;99.90
8947;DHT22;4508;48.790;9.028;2022-10-16T10:07:44;20.80;99.90
8947;DHT22;4508;48.790;9.028;2022-10-16T10:10:19;20.90;99.90
8947;DHT22;4508;48.790;9.028;2022-10-16T10:12:46;20.90;99.90
8947;DHT22;4508;48.790;9.028;2022-10-16T10:15:13;21.00;99.90
8947;DHT22;4508;48.790;9.028;2022-10-16T10:17:46;21.20;99.90
8947;DHT22;4508;48.790;9.028;2022-10-16T10:20:18;21.00;99.90
8947;DHT22;4508;48.790;9.028;2022-10-16T10:22:47;21.80;99.90
8947;DHT22;4508;48.790;9.028;2022-10-16T10:28:18;21.90;99.90
8947;DHT22;4508;48.790;9.028;2022-10-16T10:30:49;21.70;99.90
8947;DHT22;4508;48.790;9.028;2022-10-16T10:33:24;21.40;99.90
8947;DHT22;4508;48.790;9.028;2022-10-16T10:35:54;22.00;99.90
8947;DHT22;4508;48.790;9.028;2022-10-16T10:38:25;21.70;99.90
8947;DHT22;4508;48.790;9.028;2022-10-16T10:40:56;21.90;99.90
8947;DHT22;4508;48.790;9.028;2022-10-16T10:43:29;22.00;99.90
8947;DHT22;4508;48.790;9.028;2022-10-16T10:46:02;22.90;99.90
8947;DHT22;4508;48.790;9.028;2022-10-16T10:48:43;23.80;99.90
8947;DHT22;4508;48.790;9.028;2022-10-16T10:51:15;25.70;99.90
8947;DHT22;4508;48.790;9.028;2022-10-16T10:53:46;25.70;99.90
8947;DHT22;4508;48.790;9.028;2022-10-16T10:56:17;25.70;99.90
8947;DHT22;4508;48.790;9.028;2022-10-16T10:58:59;25.40;99.90
8947;DHT22;4508;48.790;9.028;2022-10-16T11:01:30;25.50;99.90
8947;DHT22;4508;48.790;9.028;2022-10-16T11:04:08;25.50;99.90
8947;DHT22;4508;48.790;9.028;2022-10-16T11:06:42;25.70;99.90
8947;DHT22;4508;48.790;9.028;2022-10-16T11:09:12;25.40;99.90
8947;DHT22;4508;48.790;9.028;2022-10-16T11:11:41;25.70;99.90
8947;DHT22;4508;48.790;9.028;2022-10-16T11:14:14;25.70;99.90
8947;DHT22;4508;48.790;9.028;2022-10-16T11:16:42;26.60;99.90
8947;DHT22;4508;48.790;9.028;2022-10-16T11:19:11;26.20;99.90
8947;DHT22;4508;48.790;9.028;2022-10-16T11:21:39;25.30;99.90
8947;DHT22;4508;48.790;9.028;2022-10-16T11:24:11;24.90;99.90
8947;DHT22;4508;48.790;9.028;2022-10-16T11:26:39;25.10;99.90
8947;DHT22;4508;48.790;9.028;2022-10-16T11:29:08;24.90;99.90
8947;DHT22;4508;48.790;9.028;2022-10-16T11:31:40;25.70;99.90
8947;DHT22;4508;48.790;9.028;2022-10-16T11:34:09;26.00;99.90
8947;DHT22;4508;48.790;9.028;2022-10-16T11:36:42;25.90;99.90
8947;DHT22;4508;48.790;9.028;2022-10-16T11:39:13;25.50;99.90
8947;DHT22;4508;48.790;9.028;2022-10-16T11:41:44;25.10;99.90
8947;DHT22;4508;48.790;9.028;2022-10-16T11:47:08;26.60;99.90
8947;DHT22;4508;48.790;9.028;2022-10-16T11:49:37;25.60;99.90
8947;DHT22;4508;48.790;9.028;2022-10-16T11:52:10;25.30;99.90
8947;DHT22;4508;48.790;9.028;2022-10-16T11:54:39;26.00;99.90
8947;DHT22;4508;48.790;9.028;2022-10-16T11:57:08;26.20;99.90
8947;DHT22;4508;48.790;9.028;2022-10-16T11:59:39;26.80;99.90
8947;DHT22;4508;48.790;9.028;2022-10-16T12:02:20;26.30;99.90
8947;DHT22;4508;48.790;9.028;2022-10-16T12:04:53;26.70;99.90
8947;DHT22;4508;48.790;9.028;2022-10-16T12:07:26;26.50;99.90
8947;DHT22;4508;48.790;9.028;2022-10-16T12:09:53;25.80;99.90
8947;DHT22;4508;48.790;9.028;2022-10-16T12:12:25;25.50;99.90
8947;DHT22;4508;48.790;9.028;2022-10-16T12:14:59;25.50;99.90
8947;DHT22;4508;48.790;9.028;2022-10-16T12:17:33;25.10;99.90
8947;DHT22;4508;48.790;9.028;2022-10-16T12:20:12;26.00;99.90
8947;DHT22;4508;48.790;9.028;2022-10-16T12:22:41;25.50;99.90
8947;DHT22;4508;48.790;9.028;2022-10-16T12:25:19;25.10;99.90
8947;DHT22;4508;48.790;9.028;2022-10-16T12:27:52;25.60;99.90
8947;DHT22;4508;48.790;9.028;2022-10-16T12:30:20;25.90;99.90
8947;DHT22;4508;48.790;9.028;2022-10-16T12:32:53;26.10;99.90
8947;DHT22;4508;48.790;9.028;2022-10-16T12:35:20;26.50;99.90
8947;DHT22;4508;48.790;9.028;2022-10-16T12:37:48;26.80;99.90
8947;DHT22;4508;48.790;9.028;2022-10-16T12:40:22;26.40;99.90
8947;DHT22;4508;48.790;9.028;2022-10-16T12:42:50;26.50;99.90
8947;DHT22;4508;48.790;9.028;2022-10-16T12:45:28;26.10;99.90
8947;DHT22;4508;48.790;9.028;2022-10-16T12:47:58;25.20;99.90
8947;DHT22;4508;48.790;9.028;2022-10-16T12:50:32;24.20;99.90
8947;DHT22;4508;48.790;9.028;2022-10-16T12:52:59;24.30;99.90
8947;DHT22;4508;48.790;9.028;2022-10-16T12:55:26;24.20;99.90
8947;DHT22;4508;48.790;9.028;2022-10-16T12:57:59;24.40;99.90
8947;DHT22;4508;48.790;9.028;2022-10-16T13:00:29;25.10;99.90
8947;DHT22;4508;48.790;9.028;2022-10-16T13:05:35;24.90;99.90
8947;DHT22;4508;48.790;9.028;2022-10-16T13:08:09;25.60;99.90
8947;DHT22;4508;48.790;9.028;2022-10-16T13:10:39;25.30;99.90
8947;DHT22;4508;48.790;9.028;2022-10-16T13:13:12;25.60;99.90
8947;DHT22;4508;48.790;9.028;2022-10-16T13:18:28;26.00;99.90
8947;DHT22;4508;48.790;9.028;2022-10-16T13:21:02;26.10;99.90
8947;DHT22;4508;48.790;9.028;2022-10-16T13:23:31;25.50;99.90
8947;DHT22;4508;48.790;9.028;2022-10-16T13:26:07;25.30;99.90
8947;DHT22;4508;48.790;9.028;2022-10-16T13:28:35;25.20;99.90
8947;DHT22;4508;48.790;9.028;2022-10-16T13:31:03;24.80;99.90
8947;DHT22;4508;48.790;9.028;2022-10-16T13:33:33;24.80;99.90
8947;DHT22;4508;48.790;9.028;2022-10-16T13:35:59;24.70;99.90
8947;DHT22;4508;48.790;9.028;2022-10-16T13:38:28;24.30;99.90
8947;DHT22;4508;48.790;9.028;2022-10-16T13:40:57;24.50;99.90
8947;DHT22;4508;48.790;9.028;2022-10-16T13:43:26;24.30;99.90
8947;DHT22;4508;48.790;9.028;2022-10-16T13:45:55;24.30;99.90
8947;DHT22;4508;48.790;9.028;2022-10-16T13:48:22;24.10;99.90
8947;DHT22;4508;48.790;9.028;2022-10-16T13:50:58;24.50;99.90
8947;DHT22;4508;48.790;9.028;2022-10-16T13:53:24;24.50;99.90
8947;DHT22;4508;48.790;9.028;2022-10-16T13:55:52;24.50;99.90
8947;DHT22;4508;48.790;9.028;2022-10-16T13:58:19;24.00;99.90
8947;DHT22;4508;48.790;9.028;2022-10-16T14:00:56;23.30;99.90
8947;DHT22;4508;48.790;9.028;2022-10-16T14:03:22;23.30;99.90
8947;DHT22;4508;48.790;9.028;2022-10-16T14:05:50;23.40;99.90
8947;DHT22;4508;48.790;9.028;2022-10-16T14:08:18;23.30;99.90
8947;DHT22;4508;48.790;9.028;2022-10-16T14:10:48;23.20;99.90
8947;DHT22;4508;48.790;9.028;2022-10-16T14:13:19;24.30;99.90
8947;DHT22;4508;48.790;9.028;2022-10-16T14:15:48;24.20;99.90
8947;DHT22;4508;48.790;9.028;2022-10-16T14:18:19;23.70;99.90
8947;DHT22;4508;48.790;9.028;2022-10-16T14:20:46;23.50;99.90
8947;DHT22;4508;48.790;9.028;2022-10-16T14:23:21;23.40;99.90
8947;DHT22;4508;48.790;9.028;2022-10-16T14:33:31;22.60;99.90
8947;DHT22;4508;48.790;9.028;2022-10-16T14:36:03;22.60;99.90
8947;DHT22;4508;48.790;9.028;2022-10-16T14:41:02;22.90;99.90
8947;DHT22;4508;48.790;9.028;2022-10-16T14:46:03;22.80;99.90
8947;DHT22;4508;48.790;9.028;2022-10-16T14:48:31;22.80;99.90
8947;DHT22;4508;48.790;9.028;2022-10-16T14:50:58;22.60;99.90
8947;DHT22;4508;48.790;9.028;2022-10-16T14:55:56;22.50;99.90
8947;DHT22;4508;48.790;9.028;2022-10-16T15:03:27;22.30;99.90
8947;DHT22;4508;48.790;9.028;2022-10-16T15:15:53;22.50;99.90
8947;DHT22;4508;48.790;9.028;2022-10-16T15:23:19;22.20;99.90
8947;DHT22;4508;48.790;9.028;2022-10-16T15:28:16;22.30;99.90
8947;DHT22;4508;48.790;9.028;2022-10-16T15:30:44;22.00;99.90
8947;DHT22;4508;48.790;9.028;2022-10-16T15:33:14;21.90;99.90
8947;DHT22;4508;48.790;9.028;2022-10-16T15:35:42;21.70;99.90
8947;DHT22;4508;48.790;9.028;2022-10-16T15:38:11;21.70;99.90
8947;DHT22;4508;48.790;9.028;2022-10-16T15:40:39;21.50;99.90
8947;DHT22;4508;48.790;9.028;2022-10-16T15:43:05;21.50;99.90
8947;DHT22;4508;48.790;9.028;2022-10-16T15:45:32;21.30;99.90
8947;DHT22;4508;48.790;9.028;2022-10-16T15:47:59;21.30;99.90
8947;DHT22;4508;48.790;9.028;2022-10-16T15:50:27;21.10;99.90
8947;DHT22;4508;48.790;9.028;2022-10-16T15:52:54;20.90;99.90
8947;DHT22;4508;48.790;9.028;2022-10-16T15:55:21;20.80;99.90
8947;DHT22;4508;48.790;9.028;2022-10-16T15:57:48;20.80;99.90
8947;DHT22;4508;48.790;9.028;2022-10-16T16:00:18;20.70;99.90
8947;DHT22;4508;48.790;9.028;2022-10-16T16:02:50;20.50;99.90
8947;DHT22;4508;48.790;9.028;2022-10-16T16:05:18;20.30;99.90
8947;DHT22;4508;48.790;9.028;2022-10-16T16:07:47;20.30;99.90
8947;DHT22;4508;48.790;9.028;2022-10-16T16:10:14;20.10;99.90
8947;DHT22;4508;48.790;9.028;2022-10-16T16:12:41;20.00;99.90
8947;DHT22;4508;48.790;9.028;2022-10-16T16:15:09;19.80;99.90
8947;DHT22;4508;48.790;9.028;2022-10-16T16:17:36;19.80;99.90
8947;DHT22;4508;48.790;9.028;2022-10-16T16:20:04;19.60;99.90
8947;DHT22;4508;48.790;9.028;2022-10-16T16:22:31;19.50;99.90
8947;DHT22;4508;48.790;9.028;2022-10-16T16:24:59;19.40;99.90
8947;DHT22;4508;48.790;9.028;2022-10-16T16:27:25;19.10;99.90
8947;DHT22;4508;48.790;9.028;2022-10-16T16:29:55;19.00;99.90
8947;DHT22;4508;48.790;9.028;2022-10-16T16:32:22;18.90;99.90
8947;DHT22;4508;48.790;9.028;2022-10-16T16:34:48;18.80;99.90
8947;DHT22;4508;48.790;9.028;2022-10-16T16:37:15;18.90;99.90
8947;DHT22;4508;48.790;9.028;2022-10-16T16:39:42;18.70;99.90
8947;DHT22;4508;48.790;9.028;2022-10-16T16:42:10;18.50;99.90
8947;DHT22;4508;48.790;9.028;2022-10-16T16:44:36;18.00;99.90
8947;DHT22;4508;48.790;9.028;2022-10-16T16:47:04;18.50;99.90
8947;DHT22;4508;48.790;9.028;2022-10-16T16:49:31;18.60;99.90
8947;DHT22;4508;48.790;9.028;2022-10-16T16:51:58;18.90;99.90
8947;DHT22;4508;48.790;9.028;2022-10-16T16:54:25;19.00;99.90
8947;DHT22;4508;48.790;9.028;2022-10-16T16:56:51;18.90;99.90
8947;DHT22;4508;48.790;9.028;2022-10-16T16:59:20;18.60;99.90
8947;DHT22;4508;48.790;9.028;2022-10-16T17:01:47;18.50;99.90
8947;DHT22;4508;48.790;9.028;2022-10-16T17:04:14;18.50;99.90